Ashippun, WI

4:27 AM CDT on September 16, 2014 (GMT -0500)
Mapleton FS | Change Station
CLOSE
Current Station
Personal Weather Station
Location: Oconomowoc, WI
Elevation: 907 ft
Nearby Weather Stations

Elev 907 ft 43.18 °N, 88.46 °W | Updated 50 seconds ago

Clear
Clear
38.5 °F
Feels Like 38 °F
N
1.6
Wind Variable Wind from North
Gusts 2.2 mph

Today
High -- | Low -- °F
--% Chance of Precip.
Yesterday
High -- | Low -- °F
Precip. -- in
6:34 AM 7:02 PM
Waning Gibbous, 47% visible
Pressure 30.20 in
Visibility 10.0 miles
Clouds Clear
Windchill 38 °F
Dew Point 38 °F
Humidity 99%
Rainfall 0.00 in
Snow Depth Not available.
UV 0 out of 12
Pollen 4.80 out of 12
Air Quality Not available.
Flu Activity Not available.
METAR KRYV 160915Z AUTO 00000KT 10SM CLR 04/04 A3020 RMK AO2 T00370037

More Conditions Fewer Conditions

Pressure 30.20 in
Visibility 10.0 miles
Clouds Clear
Windchill 38 °F
Dew Point 38 °F
Humidity 99%
Rainfall 0.00 in
Snow Depth Not available.
UV 0 out of 12
Pollen 4.80 out of 12
Air Quality Not available.
Flu Activity Not available.
METAR KRYV 160915Z AUTO 00000KT 10SM CLR 04/04 A3020 RMK AO2 T00370037

More Conditions Fewer Conditions

10-Day Weather Forecast

Almanac

Astronomy

Sep. 16, 2014 Rise Set
Actual Time 6:34 AM CDT 7:02 PM CDT
Civil Twilight 6:06 AM CDT 7:30 PM CDT
Nautical Twilight 5:32 AM CDT 8:04 PM CDT
Astronomical Twilight 4:57 AM CDT 8:39 PM CDT
Moon No Moon Rise 2:32 PM CDT
Length of Visible Light 13h 24m
Length of Day
12h 27m
Tomorrow will be 2m 55s shorter.
Waning Gibbous, 47% of the Moon is Illuminated
Today
Waning Gibbous
Sep 24
New
Oct 1
First Quarter
Oct 8
Full
Oct 15
Last Quarter

Today's Extremes

State Highs State Lows

Community

WunderPhotos

Upload Photos

1,753,714 photos uploaded!

WunderBlogs® & News

Nearby

Snow Depth

Station Depth Elevation
No new snow has been reported.

Earthquake Activity

City Distance Mag. Time & Date
No recent earthquake activity has been reported nearby.
Minimum magnitude displayed is 2.5.

Coastal Water Temperatures

Place Temperature
No Stations Reporting

Nearby Weather Stations